This is the latest recevied weather packets stored in our database for station/object OK2JV-13. If no packets are shown the sender has not sent any weather packets the latest 10 day(s).
| Time | Temp. | Humidity | Pressure | Rain* | Wind** | Luminosity | Snow |
|---|---|---|---|---|---|---|---|
| 1787571455 | 21.67° C | 39% | 1019 hPa | - | - | - | - |
| 1787570851 | 21.67° C | 41% | 1019 hPa | - | - | - | - |
| 1787570248 | 21.11° C | 40% | 1018.9 hPa | - | - | - | - |
| 1787569643 | 21.11° C | 41% | 1019 hPa | - | - | - | - |
| 1787569039 | 21.11° C | 41% | 1019.2 hPa | - | - | - | - |
| 1787568435 | 20.56° C | 41% | 1019 hPa | - | - | - | - |
| 1787567832 | 21.11° C | 41% | 1019.1 hPa | - | - | - | - |
| 1787567228 | 21.11° C | 41% | 1019 hPa | - | - | - | - |
| 1787566623 | 21.11° C | 42% | 1019 hPa | - | - | - | - |
| 1787566018 | 21.11° C | 43% | 1018.9 hPa | - | - | - | - |
| 1787565416 | 20.56° C | 43% | 1019 hPa | - | - | - | - |
| 1787564811 | 20.56° C | 43% | 1019.1 hPa | - | - | - | - |
| 1787564206 | 20.56° C | 43% | 1019.2 hPa | - | - | - | - |
| 1787563600 | 20.56° C | 42% | 1019.2 hPa | - | - | - | - |
| 1787562997 | 20.56° C | 44% | 1019.3 hPa | - | - | - | - |
| 1787562392 | 20.56° C | 43% | 1019.3 hPa | - | - | - | - |
| 1787561787 | 20° C | 44% | 1019.4 hPa | - | - | - | - |
| 1787561185 | 19.44° C | 44% | 1019.5 hPa | - | - | - | - |
| 1787560579 | 19.44° C | 44% | 1019.4 hPa | - | - | - | - |
| 1787559976 | 18.89° C | 49% | 1019.5 hPa | - | - | - | - |
| 1787559373 | 18.33° C | 51% | 1019.2 hPa | - | - | - | - |
| 1787558767 | 16.67° C | 61% | 1019.2 hPa | - | - | - | - |
| 1787558164 | 16.11° C | 63% | 1019.2 hPa | - | - | - | - |
| 1787557560 | 14.44° C | 67% | 1019.2 hPa | - | - | - | - |
| 1787556957 | 13.33° C | 70% | 1019.4 hPa | - | - | - | - |
* Rain since midnight (hover to see other rain measurements)
** Current wind speed in m/s (hover to see current wind gust speed)